Time;durP1;ratioP1;P1;durP2;ratioP2;P2;SDS_P1;SDS_P2;PMS_P1;PMS_P2;Temp;Humidity;BMP_temperature;BMP_pressure;BME280_temperature;BME280_humidity;BME280_pressure;Samples;Min_cycle;Max_cycle;Signal;HPM_P1;HPM_P2
2021/06/07 00:01:55;;;;;;;5.58;4.90;;;;;;;12.72;100.00;99056.41;1577625;87;21839;-63
2021/06/07 00:04:23;;;;;;;6.45;4.80;;;;;;;12.70;100.00;99058.02;1610418;87;20975;-62
2021/06/07 00:06:50;;;;;;;5.47;4.62;;;;;;;12.69;100.00;99052.90;1596793;88;20900;-63
2021/06/07 00:09:17;;;;;;;7.83;5.22;;;;;;;12.63;100.00;99055.63;1648773;85;20921;-63
2021/06/07 00:11:48;;;;;;;6.72;5.17;;;;;;;12.62;100.00;99051.34;1652052;85;21024;-63
2021/06/07 00:14:22;;;;;;;9.60;5.00;;;;;;;12.61;100.00;99058.34;1642538;85;20921;-63
2021/06/07 00:16:50;;;;;;;8.15;5.08;;;;;;;12.58;100.00;99057.02;1679807;84;20916;-63
2021/06/07 00:19:19;;;;;;;7.37;5.30;;;;;;;12.56;100.00;99059.17;1681055;84;27954;-64
2021/06/07 00:21:46;;;;;;;5.78;4.53;;;;;;;12.52;100.00;99062.17;1679258;84;20932;-63
2021/06/07 00:24:16;;;;;;;6.45;5.45;;;;;;;12.48;100.00;99057.08;1679662;84;21416;-63
2021/06/07 00:27:04;;;;;;;5.90;4.80;;;;;;;12.45;100.00;99067.06;1679152;84;22129;-65
2021/06/07 00:29:31;;;;;;;6.47;5.23;;;;;;;12.41;100.00;99060.61;1607344;87;21010;-64
2021/06/07 00:31:59;;;;;;;8.98;5.30;;;;;;;12.37;100.00;99067.62;1606692;87;21674;-64
2021/06/07 00:34:26;;;;;;;6.60;5.33;;;;;;;12.34;100.00;99070.87;1619720;87;20879;-62
2021/06/07 00:36:52;;;;;;;9.20;5.00;;;;;;;12.28;100.00;99064.72;1609803;87;20983;-64
2021/06/07 00:39:19;;;;;;;6.03;4.72;;;;;;;12.24;100.00;99066.34;1596395;87;21355;-64
2021/06/07 00:41:47;;;;;;;9.58;4.53;;;;;;;12.20;100.00;99063.97;1584004;90;22095;-64
2021/06/07 00:44:18;;;;;;;9.28;5.42;;;;;;;12.18;100.00;99066.92;1585582;88;20907;-65
2021/06/07 00:46:44;;;;;;;6.05;5.45;;;;;;;12.18;100.00;99066.92;1580956;89;21363;-63
2021/06/07 00:49:12;;;;;;;7.95;4.67;;;;;;;12.13;100.00;99076.36;1580647;90;21082;-65
2021/06/07 00:51:41;;;;;;;5.70;5.20;;;;;;;12.07;100.00;99076.64;1580542;89;20947;-65
2021/06/07 00:54:07;;;;;;;9.85;5.28;;;;;;;12.06;100.00;99073.70;1580352;89;20896;-65
2021/06/07 00:56:35;;;;;;;6.92;5.50;;;;;;;12.07;100.00;99075.30;1581304;89;20957;-65
2021/06/07 00:59:03;;;;;;;6.37;5.00;;;;;;;12.02;100.00;99074.78;1593823;89;20944;-65
2021/06/07 01:01:31;;;;;;;6.67;5.55;;;;;;;12.03;100.00;99076.41;1584016;89;24865;-65
2021/06/07 01:03:59;;;;;;;9.88;5.15;;;;;;;11.99;100.00;99072.64;1597727;87;21151;-65
2021/06/07 01:06:26;;;;;;;8.33;5.58;;;;;;;11.96;100.00;99067.28;1598995;88;20955;-65
2021/06/07 01:08:52;;;;;;;8.40;5.08;;;;;;;11.99;100.00;99067.27;1583557;90;20978;-65
2021/06/07 01:11:21;;;;;;;7.20;5.03;;;;;;;12.00;100.00;99064.83;1583047;89;21070;-65
2021/06/07 01:13:50;;;;;;;7.42;5.62;;;;;;;11.97;100.00;99066.19;1583016;89;21025;-65
2021/06/07 01:16:17;;;;;;;6.92;5.67;;;;;;;11.95;100.00;99070.23;1584149;90;21262;-65
2021/06/07 01:18:44;;;;;;;6.97;5.30;;;;;;;11.93;100.00;99069.69;1618702;87;20965;-65
2021/06/07 01:21:14;;;;;;;6.33;5.45;;;;;;;11.97;100.00;99072.11;1617533;87;20959;-65
2021/06/07 01:23:43;;;;;;;7.50;5.70;;;;;;;12.00;100.00;99078.28;1617634;86;21425;-66
2021/06/07 01:26:09;;;;;;;22.87;5.90;;;;;;;11.94;100.00;99068.63;1621023;87;21077;-65
2021/06/07 01:28:36;;;;;;;8.78;6.40;;;;;;;11.88;100.00;99075.09;1619034;86;21145;-64
2021/06/07 01:31:03;;;;;;;13.60;6.00;;;;;;;11.84;100.00;99071.33;1616849;87;20887;-65
2021/06/07 01:33:30;;;;;;;8.90;5.70;;;;;;;11.79;100.00;99064.88;1622032;86;21008;-65
2021/06/07 01:35:58;;;;;;;8.68;6.03;;;;;;;11.82;100.00;99062.72;1623576;87;21017;-65
2021/06/07 01:38:25;;;;;;;9.73;5.83;;;;;;;11.77;100.00;99066.23;1615815;87;20898;-65
2021/06/07 01:40:55;;;;;;;7.10;5.65;;;;;;;11.70;100.00;99069.73;1561780;90;21153;-64
2021/06/07 01:43:22;;;;;;;8.63;6.00;;;;;;;11.67;100.00;99068.41;1566030;89;20900;-65
2021/06/07 01:45:50;;;;;;;7.67;5.80;;;;;;;11.65;100.00;99069.75;1604995;88;20999;-65
2021/06/07 01:48:17;;;;;;;5.67;5.17;;;;;;;11.67;100.00;99068.95;1616889;86;20976;-66
2021/06/07 01:50:44;;;;;;;10.20;5.90;;;;;;;11.71;100.00;99067.30;1623343;87;20967;-66
2021/06/07 01:53:11;;;;;;;6.28;5.40;;;;;;;11.76;100.00;99075.39;1609481;87;21658;-64
2021/06/07 01:55:41;;;;;;;11.22;5.28;;;;;;;11.83;100.00;99064.32;1599821;87;21478;-65
2021/06/07 01:58:09;;;;;;;7.03;5.50;;;;;;;11.86;100.00;99069.97;1604433;87;21060;-64
2021/06/07 02:00:44;;;;;;;7.75;5.83;;;;;;;11.88;100.00;99075.92;1614431;87;21021;-64
2021/06/07 02:03:12;;;;;;;10.25;5.58;;;;;;;11.90;100.00;99074.28;1606145;87;20974;-65
2021/06/07 02:05:42;;;;;;;8.45;5.67;;;;;;;11.95;100.00;99069.69;1620597;87;21029;-64
2021/06/07 02:08:11;;;;;;;12.58;5.85;;;;;;;12.01;100.00;99072.63;1621362;86;21449;-65
2021/06/07 02:10:42;;;;;;;5.67;4.70;;;;;;;12.05;100.00;99074.22;1608897;87;21057;-65
2021/06/07 02:13:09;;;;;;;6.25;5.50;;;;;;;12.08;100.00;99072.86;1609079;87;20954;-64
2021/06/07 02:15:38;;;;;;;8.48;5.28;;;;;;;12.12;100.00;99083.35;1619923;87;20906;-65
2021/06/07 02:18:08;;;;;;;12.18;5.50;;;;;;;12.17;100.00;99080.64;1620905;86;21122;-65
2021/06/07 02:20:35;;;;;;;6.87;5.30;;;;;;;12.25;100.00;99085.98;1614546;86;20847;-65
2021/06/07 02:23:02;;;;;;;5.70;4.80;;;;;;;12.35;100.00;99087.30;1627585;87;20948;-64
2021/06/07 02:25:29;;;;;;;5.83;5.30;;;;;;;12.39;100.00;99085.65;1631465;86;20955;-65
2021/06/07 02:27:56;;;;;;;6.90;4.67;;;;;;;12.40;100.00;99088.63;1618595;85;21106;-65
2021/06/07 02:30:26;;;;;;;5.95;5.35;;;;;;;12.43;100.00;99085.38;1645864;84;21870;-65
2021/06/07 02:32:55;;;;;;;5.78;4.97;;;;;;;12.47;100.00;99088.30;1634604;86;21012;-65
2021/06/07 02:35:22;;;;;;;7.72;4.70;;;;;;;12.51;100.00;99094.75;1640032;85;20894;-66
2021/06/07 02:37:51;;;;;;;6.58;5.28;;;;;;;12.53;100.00;99090.69;1634462;87;20993;-63
2021/06/07 02:40:22;;;;;;;9.25;4.87;;;;;;;12.55;100.00;99094.47;1634502;86;20902;-65
2021/06/07 02:42:49;;;;;;;8.80;4.67;;;;;;;12.57;100.00;99096.34;1639513;85;21896;-65
2021/06/07 02:45:18;;;;;;;5.40;4.05;;;;;;;12.62;100.00;99103.05;1635743;85;21375;-65
2021/06/07 02:47:47;;;;;;;5.08;4.20;;;;;;;12.69;100.00;99101.37;1636258;86;20944;-65
2021/06/07 02:50:15;;;;;;;6.20;4.40;;;;;;;12.76;100.00;99104.01;1631854;86;21006;-65
2021/06/07 02:52:48;;;;;;;7.92;4.10;;;;;;;12.82;100.00;99109.64;1634965;86;21116;-65
2021/06/07 02:55:30;;;;;;;7.40;4.78;;;;;;;12.88;100.00;99110.41;1636482;86;21356;-65
2021/06/07 02:57:57;;;;;;;11.43;4.33;;;;;;;12.89;100.00;99111.23;1635562;85;21015;-65
2021/06/07 03:00:35;;;;;;;8.90;4.67;;;;;;;12.89;100.00;99113.38;1642037;85;20889;-65
2021/06/07 03:03:03;;;;;;;6.03;4.35;;;;;;;12.87;100.00;99112.30;1638449;86;21072;-65
2021/06/07 03:05:30;;;;;;;9.75;4.55;;;;;;;12.88;100.00;99114.45;1638415;85;20959;-65
2021/06/07 03:07:57;;;;;;;11.73;5.37;;;;;;;12.92;100.00;99117.40;1647749;85;21125;-65
2021/06/07 03:10:24;;;;;;;6.58;5.00;;;;;;;12.93;100.00;99116.30;1656716;84;20898;-66
2021/06/07 03:12:50;;;;;;;5.85;4.30;;;;;;;12.96;100.00;99121.95;1633709;86;21048;-65
2021/06/07 03:15:18;;;;;;;6.15;4.80;;;;;;;12.98;100.00;99117.06;1634066;86;21013;-66
2021/06/07 03:17:44;;;;;;;4.97;4.50;;;;;;;13.01;100.00;99121.12;1644358;85;20941;-65
2021/06/07 03:20:14;;;;;;;9.60;4.55;;;;;;;13.04;100.00;99113.27;1645260;85;21152;-65
2021/06/07 03:22:41;;;;;;;7.30;4.67;;;;;;;13.08;100.00;99118.36;1635435;85;21621;-65
2021/06/07 03:25:09;;;;;;;6.85;5.03;;;;;;;13.13;100.00;99118.88;1640552;86;20988;-63
2021/06/07 03:27:36;;;;;;;;;;;;;;;13.19;100.00;99113.69;1639715;86;21065;-63
2021/06/07 03:30:06;;;;;;;8.00;4.28;;;;;;;13.26;100.00;99121.47;1641371;85;20113;-64
2021/06/07 03:32:32;;;;;;;6.05;4.65;;;;;;;13.32;100.00;99124.95;1636585;86;21122;-63
2021/06/07 03:34:59;;;;;;;11.63;5.10;;;;;;;13.37;100.00;99119.51;1634499;86;20988;-63
2021/06/07 03:37:26;;;;;;;6.12;4.53;;;;;;;13.42;100.00;99119.46;1638165;86;21249;-65
2021/06/07 03:39:53;;;;;;;10.97;4.70;;;;;;;13.48;100.00;99123.19;1637511;85;20905;-64
2021/06/07 03:42:21;;;;;;;7.03;4.87;;;;;;;13.56;100.00;99124.47;1633577;86;20893;-63
2021/06/07 03:44:47;;;;;;;8.93;4.97;;;;;;;13.66;100.00;99124.91;1633944;86;21622;-63
2021/06/07 03:47:14;;;;;;;8.83;5.35;;;;;;;13.70;100.00;99132.16;1644843;85;20961;-66
2021/06/07 03:49:41;;;;;;;7.85;5.45;;;;;;;13.76;100.00;99123.46;1640457;84;20929;-64
2021/06/07 03:52:07;;;;;;;16.02;9.20;;;;;;;13.83;100.00;99122.58;1638042;86;21060;-64
2021/06/07 03:54:34;;;;;;;17.45;8.65;;;;;;;13.96;100.00;99122.99;1639521;86;21384;-66
2021/06/07 03:57:01;;;;;;;7.65;6.35;;;;;;;14.14;100.00;99124.97;1637923;85;21135;-66
2021/06/07 03:59:27;;;;;;;10.30;5.17;;;;;;;14.39;100.00;99126.55;1642592;85;20992;-66
2021/06/07 04:01:55;;;;;;;7.33;4.42;;;;;;;14.67;100.00;99132.16;1641261;85;20905;-67
2021/06/07 04:04:22;;;;;;;7.30;5.03;;;;;;;14.84;100.00;99131.10;1648870;84;21012;-66
2021/06/07 04:06:49;;;;;;;9.88;5.12;;;;;;;15.10;100.00;99135.59;1639673;86;21013;-65
2021/06/07 04:09:17;;;;;;;10.78;4.95;;;;;;;15.25;100.00;99137.25;1645822;85;21136;-65
2021/06/07 04:11:43;;;;;;;9.63;4.65;;;;;;;15.39;100.00;99137.31;1658805;84;20933;-66
2021/06/07 04:14:10;;;;;;;8.93;4.40;;;;;;;15.49;100.00;99140.41;1636810;86;21028;-66
2021/06/07 04:16:37;;;;;;;12.65;4.35;;;;;;;15.70;100.00;99138.96;1634734;86;21023;-67
2021/06/07 04:19:04;;;;;;;9.50;4.25;;;;;;;15.98;100.00;99139.02;1644566;86;20902;-66
2021/06/07 04:21:30;;;;;;;9.68;4.00;;;;;;;16.21;100.00;99135.30;1631416;86;21134;-66
2021/06/07 04:23:57;;;;;;;8.08;3.95;;;;;;;16.50;100.00;99146.38;1635609;86;21014;-66
2021/06/07 04:26:23;;;;;;;4.10;3.70;;;;;;;16.77;100.00;99141.47;1646591;84;20929;-66
2021/06/07 04:28:50;;;;;;;3.58;3.27;;;;;;;16.71;100.00;99144.85;1634684;86;20913;-66
2021/06/07 04:31:17;;;;;;;6.17;3.77;;;;;;;16.61;100.00;99147.78;1634880;86;21513;-65
2021/06/07 04:33:43;;;;;;;5.90;3.58;;;;;;;16.53;100.00;99146.33;1614094;87;21817;-65
2021/06/07 04:36:10;;;;;;;6.90;3.87;;;;;;;16.43;100.00;99148.14;1635588;85;20894;-65
2021/06/07 04:38:37;;;;;;;6.58;3.90;;;;;;;16.40;100.00;99146.04;1635610;86;20967;-65
2021/06/07 04:41:03;;;;;;;9.65;4.80;;;;;;;16.41;100.00;99146.31;1641825;85;21881;-66
2021/06/07 04:43:30;;;;;;;4.95;3.77;;;;;;;16.34;100.00;99144.55;1636463;84;21044;-66
2021/06/07 04:45:57;;;;;;;7.15;4.25;;;;;;;16.27;100.00;99140.88;1641144;85;21309;-67
2021/06/07 04:48:24;;;;;;;6.55;4.28;;;;;;;16.28;100.00;99138.97;1641046;85;20902;-66
2021/06/07 04:50:52;;;;;;;10.18;4.87;;;;;;;16.32;100.00;99144.05;1635370;86;21001;-67
2021/06/07 04:53:18;;;;;;;10.15;4.10;;;;;;;16.40;100.00;99142.53;1635594;86;20925;-65
2021/06/07 04:55:48;;;;;;;8.50;3.72;;;;;;;16.50;100.00;99143.11;1639189;86;20932;-65
2021/06/07 04:58:17;;;;;;;5.10;3.33;;;;;;;16.62;100.00;99145.88;1629411;86;21195;-65
2021/06/07 05:00:54;;;;;;;7.53;3.90;;;;;;;16.79;100.00;99143.36;1639872;84;20894;-65
2021/06/07 05:03:20;;;;;;;3.70;3.35;;;;;;;16.87;100.00;99145.34;1648226;85;20906;-65
2021/06/07 05:05:48;;;;;;;6.42;3.83;;;;;;;16.89;100.00;99146.39;1647616;85;21037;-64
2021/06/07 05:08:14;;;;;;;8.15;3.83;;;;;;;16.92;100.00;99143.86;1635040;86;21035;-65
2021/06/07 05:10:43;;;;;;;7.30;4.05;;;;;;;16.86;100.00;99142.39;1641396;85;20938;-67
2021/06/07 05:13:09;;;;;;;5.60;3.30;;;;;;;16.78;100.00;99145.83;1641117;85;21049;-66
2021/06/07 05:15:37;;;;;;;;;;;;;;;16.79;100.00;99141.20;1641078;86;20937;-65
2021/06/07 05:18:06;;;;;;;5.42;4.00;;;;;;;16.89;100.00;99151.81;1645332;85;20114;-66
2021/06/07 05:20:38;;;;;;;;;;;;;;;17.21;100.00;99156.80;1636823;86;20885;-65
2021/06/07 05:23:07;;;;;;;15.18;4.05;;;;;;;17.56;100.00;99155.94;1640790;85;21142;-64
2021/06/07 05:25:34;;;;;;;7.03;4.08;;;;;;;17.71;100.00;99149.33;1637389;85;20894;-63
2021/06/07 05:28:03;;;;;;;4.78;3.47;;;;;;;17.92;100.00;99153.67;1649437;84;20985;-63
2021/06/07 05:30:31;;;;;;;7.50;4.30;;;;;;;18.07;100.00;99145.67;1619383;87;20975;-63
2021/06/07 05:32:58;;;;;;;6.10;4.25;;;;;;;18.24;100.00;99151.73;1648326;85;20973;-64
2021/06/07 05:35:28;;;;;;;6.60;3.92;;;;;;;18.42;100.00;99147.97;1648292;85;21108;-64
2021/06/07 05:37:57;;;;;;;5.03;3.45;;;;;;;18.81;100.00;99149.58;1651123;84;20940;-62
2021/06/07 05:40:23;;;;;;;5.28;3.72;;;;;;;18.93;100.00;99163.34;1648568;85;21083;-64
2021/06/07 05:42:50;;;;;;;8.88;3.92;;;;;;;18.99;100.00;99156.65;1660599;84;20963;-64
2021/06/07 05:45:17;;;;;;;8.95;3.95;;;;;;;19.17;100.00;99156.65;1638074;86;21039;-65
2021/06/07 05:47:44;;;;;;;6.37;4.08;;;;;;;19.19;100.00;99159.28;1649198;85;21074;-65
2021/06/07 05:50:14;;;;;;;8.48;3.85;;;;;;;19.38;100.00;99153.52;1659194;84;21442;-65
2021/06/07 05:52:46;;;;;;;5.97;3.95;;;;;;;19.37;100.00;99155.98;1648807;85;21078;-66
2021/06/07 05:55:18;;;;;;;4.65;3.50;;;;;;;19.46;100.00;99158.71;1660382;85;20945;-64
2021/06/07 05:57:46;;;;;;;5.90;3.30;;;;;;;19.89;100.00;99155.11;1649524;85;21063;-64
2021/06/07 06:00:15;;;;;;;;;;;;;;;20.26;100.00;99154.08;1662503;85;21162;-66
2021/06/07 06:02:41;;;;;;;12.75;3.83;;;;;;;20.30;100.00;99156.40;1648276;85;20164;-65
2021/06/07 06:05:10;;;;;;;5.37;3.83;;;;;;;20.31;100.00;99150.63;1624283;85;21005;-68
2021/06/07 06:07:37;;;;;;;10.48;3.67;;;;;;;20.27;100.00;99153.77;1654086;85;21587;-67
2021/06/07 06:10:05;;;;;;;7.12;4.30;;;;;;;20.55;100.00;99154.14;1670387;85;21080;-67
2021/06/07 06:12:33;;;;;;;5.85;4.20;;;;;;;20.71;100.00;99154.92;1622141;87;21500;-67
2021/06/07 06:15:00;;;;;;;7.80;3.47;;;;;;;20.71;100.00;99153.56;1621715;87;21492;-68
2021/06/07 06:17:27;;;;;;;7.00;3.72;;;;;;;20.88;100.00;99155.37;1622256;87;21065;-67
2021/06/07 06:19:56;;;;;;;17.60;6.97;;;;;;;21.14;100.00;99160.07;1608862;87;21080;-67
2021/06/07 06:22:23;;;;;;;7.70;4.40;;;;;;;21.22;100.00;99157.03;1622750;87;21061;-67
2021/06/07 06:24:50;;;;;;;7.08;4.53;;;;;;;21.27;100.00;99155.46;1602221;87;21394;-66
2021/06/07 06:27:17;;;;;;;7.20;4.62;;;;;;;21.37;100.00;99157.77;1624177;87;21010;-66
2021/06/07 06:29:44;;;;;;;5.67;4.03;;;;;;;21.41;100.00;99160.65;1620524;86;21046;-66
2021/06/07 06:32:16;;;;;;;4.20;3.75;;;;;;;21.39;100.00;99159.64;1626066;87;21492;-68
2021/06/07 06:34:48;;;;;;;6.67;4.60;;;;;;;21.58;100.00;99163.23;1623719;87;21457;-66
2021/06/07 06:37:16;;;;;;;6.50;4.03;;;;;;;21.88;100.00;99167.19;1580840;88;21147;-67
2021/06/07 06:39:43;;;;;;;7.22;3.90;;;;;;;22.01;100.00;99171.52;1648543;85;20940;-67
2021/06/07 06:42:11;;;;;;;6.93;3.90;;;;;;;22.20;100.00;99164.18;1605995;85;21063;-68
2021/06/07 06:44:41;;;;;;;8.33;4.72;;;;;;;22.10;100.00;99163.78;1623299;86;21017;-68
2021/06/07 06:47:08;;;;;;;7.00;4.33;;;;;;;22.29;100.00;99159.95;1649274;85;21562;-66
2021/06/07 06:49:53;;;;;;;7.12;4.05;;;;;;;22.67;100.00;99162.91;1629156;85;21211;-66
2021/06/07 06:52:43;;;;;;;10.40;6.15;;;;;;;22.56;100.00;99159.04;1655886;85;21055;-68
2021/06/07 06:59:11;;;;;;;6.22;4.40;;;;;;;22.40;100.00;99157.00;1621871;87;21119;-68
2021/06/07 07:01:40;;;;;;;7.42;4.00;;;;;;;23.08;99.93;99154.99;1616022;87;21527;-68
2021/06/07 07:04:07;;;;;;;7.40;4.80;;;;;;;22.90;97.69;99164.00;1624791;85;21153;-67
2021/06/07 07:06:36;;;;;;;9.98;4.30;;;;;;;22.64;100.00;99153.45;1625692;87;20991;-69
2021/06/07 07:09:04;;;;;;;7.25;3.67;;;;;;;22.82;100.00;99157.30;1614158;87;21017;-69
2021/06/07 07:11:33;;;;;;;6.72;3.50;;;;;;;22.85;100.00;99154.66;1626410;85;21048;-68
2021/06/07 07:14:01;;;;;;;4.53;3.30;;;;;;;22.78;99.52;99157.18;1599653;87;21439;-69
2021/06/07 07:16:29;;;;;;;5.85;4.33;;;;;;;23.04;98.98;99147.23;1628308;87;21673;-68
2021/06/07 07:18:56;;;;;;;4.67;4.10;;;;;;;23.21;100.00;99152.22;1618804;87;21461;-68
2021/06/07 07:21:23;;;;;;;10.30;5.57;;;;;;;23.74;99.65;99153.70;1619123;87;21515;-68
2021/06/07 07:28:00;;;;;;;10.53;4.72;;;;;;;23.80;97.47;99156.97;1676258;84;21040;-71
2021/06/07 08:05:52;;;;;;;8.23;3.20;;;;;;;24.54;78.93;99155.87;1615110;87;21461;-67
2021/06/07 08:11:51;;;;;;;4.78;3.10;;;;;;;25.26;75.64;99158.83;1499762;94;21025;-69
2021/06/07 08:14:35;;;;;;;3.80;3.10;;;;;;;25.14;73.76;99162.48;1500481;92;21046;-69
2021/06/07 08:17:02;;;;;;;4.80;3.05;;;;;;;25.34;72.68;99158.39;1497325;92;21061;-66
2021/06/07 08:19:29;;;;;;;;;;;;;;;25.32;72.09;99153.25;1498961;94;21479;-67
2021/06/07 08:22:00;;;;;;;6.00;3.70;;;;;;;24.97;71.42;99143.69;1497234;94;21543;-67
2021/06/07 08:24:31;;;;;;;3.75;3.25;;;;;;;24.81;73.40;99150.59;1500418;94;21446;-67
2021/06/07 08:26:59;;;;;;;4.20;3.40;;;;;;;24.72;76.32;99152.17;1491532;94;21069;-68
2021/06/07 08:30:13;;;;;;;;;;;;;;;;;;;;;
2021/06/07 08:34:35;;;;;;;5.72;3.22;;;;;;;24.96;77.98;99153.88;1377019;102;21162;-71
2021/06/07 08:50:14;;;;;;;7.08;2.90;;;;;;;25.62;64.81;99160.88;1386121;95;21234;-71
2021/06/07 08:53:16;;;;;;;4.92;2.80;;;;;;;26.27;58.78;99166.38;1407280;100;21075;-70
2021/06/07 08:59:35;;;;;;;6.80;2.92;;;;;;;25.44;59.42;99156.42;1377884;102;21141;-68
2021/06/07 09:02:04;;;;;;;5.35;2.80;;;;;;;25.54;60.17;99166.03;1358733;103;21696;-68
2021/06/07 09:04:49;;;;;;;7.47;2.85;;;;;;;25.57;57.08;99166.67;1345416;105;21094;-68
2021/06/07 09:07:17;;;;;;;8.03;2.85;;;;;;;25.80;60.11;99159.27;1329178;105;21486;-68
2021/06/07 09:10:09;;;;;;;6.72;2.85;;;;;;;26.02;60.56;99153.59;1347422;99;21653;-68
2021/06/07 09:12:44;;;;;;;3.92;2.98;;;;;;;26.18;60.00;99156.78;1379354;102;21101;-67
2021/06/07 09:15:27;;;;;;;5.62;3.08;;;;;;;26.48;59.34;99149.41;1357202;103;21136;-67
2021/06/07 09:17:54;;;;;;;4.20;2.90;;;;;;;26.68;57.41;99146.58;1364793;103;21108;-67
2021/06/07 09:20:23;;;;;;;5.60;3.00;;;;;;;26.72;55.90;99146.81;1380559;102;21096;-67
2021/06/07 09:22:52;;;;;;;6.12;3.52;;;;;;;26.89;57.06;99151.57;1389288;101;21106;-68
2021/06/07 09:28:21;;;;;;;3.60;2.40;;;;;;;26.29;56.08;99133.79;1399323;100;21075;-67
2021/06/07 09:30:58;;;;;;;6.72;2.30;;;;;;;26.39;55.12;99128.83;1393915;101;21067;-67
2021/06/07 09:33:34;;;;;;;6.20;2.92;;;;;;;26.31;55.97;99121.02;1394271;101;21095;-68
2021/06/07 09:36:24;;;;;;;4.28;2.80;;;;;;;26.48;56.83;99121.08;1421562;97;21178;-67
2021/06/07 09:39:12;;;;;;;6.87;2.58;;;;;;;26.48;52.82;99120.52;1474674;95;21561;-67
2021/06/07 09:41:50;;;;;;;4.92;2.60;;;;;;;26.51;52.54;99123.90;1476483;95;21123;-69
2021/06/07 09:44:39;;;;;;;9.38;2.90;;;;;;;26.22;53.93;99119.13;1425717;98;21065;-68
2021/06/07 09:47:31;;;;;;;3.75;2.58;;;;;;;26.53;52.05;99115.28;1372784;102;21057;-67
2021/06/07 09:50:12;;;;;;;5.63;2.77;;;;;;;26.23;54.95;99112.45;1402236;100;21365;-69
2021/06/07 09:52:44;;;;;;;6.60;3.85;;;;;;;26.73;55.52;99109.09;1385742;100;21181;-68
2021/06/07 09:55:17;;;;;;;5.05;2.40;;;;;;;26.94;54.61;99107.97;1383326;102;21229;-68
2021/06/07 09:58:05;;;;;;;4.62;2.83;;;;;;;27.02;50.98;99101.99;1369596;102;21141;-65
2021/06/07 10:49:44;;;;;;;5.97;2.58;;;;;;;26.91;50.20;99062.51;1513015;92;20961;-67
2021/06/07 10:52:24;;;;;;;7.20;2.72;;;;;;;26.17;50.30;99053.45;1493565;93;21471;-67
2021/06/07 10:55:10;;;;;;;5.58;2.80;;;;;;;25.53;53.26;99055.90;1499389;92;21162;-67
2021/06/07 10:57:48;;;;;;;9.20;3.30;;;;;;;24.68;55.86;99058.00;1509289;93;21181;-68
2021/06/07 11:00:29;;;;;;;6.12;2.65;;;;;;;23.70;60.58;99049.24;1525395;92;21802;-68
2021/06/07 11:04:03;;;;;;;4.10;2.60;;;;;;;22.92;68.25;99032.31;1524543;93;21400;-68
2021/06/07 11:06:30;;;;;;;10.68;3.22;;;;;;;22.05;78.35;99030.34;1473916;95;21544;-67
2021/06/07 11:09:06;;;;;;;5.00;4.00;;;;;;;20.82;94.09;99023.05;1452804;96;21181;-67
2021/06/07 11:11:48;;;;;;;16.90;4.00;;;;;;;20.30;100.00;99027.75;1473664;96;21503;-67
2021/06/07 11:14:15;;;;;;;9.88;3.90;;;;;;;20.01;100.00;99042.19;1466032;96;21276;-66
2021/06/07 11:16:45;;;;;;;8.50;4.08;;;;;;;19.86;100.00;99053.64;1476315;96;20974;-66
2021/06/07 11:19:20;;;;;;;8.45;3.80;;;;;;;19.75;100.00;99065.47;1477889;95;21014;-68
2021/06/07 11:21:58;;;;;;;5.87;4.35;;;;;;;19.69;100.00;99067.55;1475790;95;21594;-67
2021/06/07 11:24:35;;;;;;;9.85;4.70;;;;;;;19.61;100.00;99075.73;1496799;93;20968;-68
2021/06/07 11:30:08;;;;;;;8.90;4.30;;;;;;;19.52;100.00;99087.20;1787386;77;22632;-67
2021/06/07 11:32:38;;;;;;;7.45;4.10;;;;;;;19.40;100.00;99090.05;1766041;80;20882;-66
2021/06/07 11:35:05;;;;;;;8.05;4.10;;;;;;;19.27;100.00;99091.81;1743940;80;22355;-66
2021/06/07 11:37:36;;;;;;;;;;;;;;;19.13;100.00;99090.39;1779948;80;20914;-67
2021/06/07 11:40:07;;;;;;;11.43;3.98;;;;;;;18.91;100.00;99082.64;1765612;80;20476;-67
2021/06/07 11:42:54;;;;;;;5.00;3.22;;;;;;;18.62;100.00;99071.04;1770944;80;20989;-67
2021/06/07 11:45:42;;;;;;;4.15;3.25;;;;;;;18.39;100.00;99067.63;1736068;82;20897;-66
2021/06/07 11:48:09;;;;;;;6.50;3.47;;;;;;;18.19;100.00;99070.39;1727065;81;21128;-67
2021/06/07 11:50:41;;;;;;;5.53;2.70;;;;;;;18.05;100.00;99063.72;1721723;81;20999;-67
2021/06/07 11:53:17;;;;;;;12.25;7.10;;;;;;;17.95;100.00;99072.95;1735361;82;20960;-66
2021/06/07 11:55:45;;;;;;;7.33;3.65;;;;;;;17.91;100.00;99065.77;1718422;82;20912;-67
2021/06/07 11:58:20;;;;;;;4.83;2.92;;;;;;;17.93;100.00;99081.16;1742397;82;20901;-67
2021/06/07 12:00:52;;;;;;;2.75;2.37;;;;;;;17.96;100.00;99087.34;1742812;82;21121;-66
2021/06/07 12:03:22;;;;;;;6.95;2.50;;;;;;;18.01;100.00;99091.28;1735082;81;20877;-66
2021/06/07 12:05:49;;;;;;;6.15;2.67;;;;;;;18.02;100.00;99096.94;1753097;81;21481;-66
2021/06/07 12:08:19;;;;;;;6.20;2.57;;;;;;;18.02;100.00;99102.37;1749139;81;20968;-66
2021/06/07 12:10:58;;;;;;;3.67;2.40;;;;;;;18.06;100.00;99098.48;1714360;82;21071;-68
2021/06/07 12:13:31;;;;;;;2.45;2.02;;;;;;;18.09;100.00;99089.70;1722839;82;21124;-65
2021/06/07 12:16:08;;;;;;;5.67;2.72;;;;;;;18.10;100.00;99087.22;1733408;81;20881;-65
2021/06/07 12:18:46;;;;;;;3.52;2.35;;;;;;;18.19;100.00;99079.91;1743988;81;20877;-66
2021/06/07 12:21:22;;;;;;;5.22;2.90;;;;;;;18.39;100.00;99078.50;1733478;81;21509;-67
2021/06/07 12:23:57;;;;;;;5.72;2.27;;;;;;;18.54;100.00;99079.39;1735191;81;20822;-67
2021/06/07 12:29:34;;;;;;;4.22;2.55;;;;;;;18.99;100.00;99079.14;1702709;82;20848;-66
2021/06/07 12:32:22;;;;;;;5.90;2.40;;;;;;;19.35;100.00;99067.63;1701805;82;20940;-66
2021/06/07 12:35:15;;;;;;;11.20;2.67;;;;;;;19.69;99.05;99064.04;1647605;85;21689;-66
2021/06/07 12:38:00;;;;;;;6.70;3.37;;;;;;;20.09;96.63;99063.16;1632986;86;21524;-67
2021/06/07 12:40:49;;;;;;;5.10;3.08;;;;;;;20.84;97.28;99061.70;1628105;86;21162;-66
2021/06/07 12:43:26;;;;;;;6.10;2.52;;;;;;;21.59;98.23;99061.05;1638494;86;20946;-66
2021/06/07 12:46:05;;;;;;;5.30;2.60;;;;;;;22.39;90.04;99055.63;1634969;86;23914;-66
2021/06/07 12:48:40;;;;;;;5.17;3.12;;;;;;;23.24;89.08;99059.22;1618451;86;21486;-66
2021/06/07 12:51:12;;;;;;;7.37;3.08;;;;;;;24.03;83.86;99055.73;1629839;86;21017;-66
2021/06/07 12:53:49;;;;;;;4.22;2.75;;;;;;;24.43;75.24;99069.78;1629974;86;21188;-66
2021/06/07 12:58:30;;;;;;;3.47;2.45;;;;;;;24.68;71.87;99064.07;1859064;76;22703;-67
2021/06/07 13:01:05;;;;;;;6.65;2.77;;;;;;;24.33;73.75;99075.25;1824893;77;21284;-67
2021/06/07 13:03:32;;;;;;;6.92;3.40;;;;;;;23.62;75.66;99081.73;1741312;80;21191;-67
2021/06/07 13:06:07;;;;;;;4.85;2.80;;;;;;;23.34;76.30;99090.77;1737274;81;20870;-66
2021/06/07 13:08:57;;;;;;;7.05;3.30;;;;;;;23.08;76.50;99091.25;1745254;80;20910;-67
2021/06/07 13:11:37;;;;;;;6.47;3.70;;;;;;;22.90;78.45;99105.74;1724098;80;21401;-66
2021/06/07 13:14:25;;;;;;;7.37;3.25;;;;;;;23.15;81.68;99102.95;1748865;80;20953;-66
2021/06/07 13:16:51;;;;;;;8.23;3.72;;;;;;;23.35;83.77;99113.46;1750718;79;21130;-65
2021/06/07 13:19:26;;;;;;;6.40;3.47;;;;;;;23.44;83.91;99106.68;1761618;79;20882;-65
2021/06/07 13:22:02;;;;;;;10.43;3.90;;;;;;;23.33;83.58;99108.36;1732563;80;20916;-66
2021/06/07 13:24:35;;;;;;;9.45;3.95;;;;;;;23.16;86.44;99129.98;1718422;80;21099;-65
2021/06/07 13:27:24;;;;;;;5.50;3.57;;;;;;;22.79;86.93;99120.48;1733907;80;20893;-66
2021/06/07 13:29:56;;;;;;;5.17;3.35;;;;;;;22.57;90.06;99136.03;1760417;80;21707;-67
2021/06/07 13:32:31;;;;;;;6.70;4.12;;;;;;;22.34;90.08;99139.25;1732654;79;20981;-67
2021/06/07 13:35:06;;;;;;;6.70;3.50;;;;;;;22.24;90.25;99136.95;1744584;80;20843;-67
2021/06/07 13:37:42;;;;;;;6.72;3.10;;;;;;;22.13;88.24;99137.16;1769039;79;21364;-68
2021/06/07 13:40:28;;;;;;;5.22;3.55;;;;;;;21.99;89.49;99125.97;1802122;77;21206;-67
2021/06/07 13:43:24;;;;;;;8.45;3.62;;;;;;;21.84;90.35;99132.11;1741483;78;20893;-68
2021/06/07 13:46:11;;;;;;;11.88;4.10;;;;;;;21.58;86.36;99116.82;1693187;82;21128;-68
2021/06/07 13:48:38;;;;;;;8.40;3.90;;;;;;;21.50;86.57;99113.59;1704626;82;20952;-67
2021/06/07 13:51:11;;;;;;;9.13;3.65;;;;;;;21.62;86.31;99104.06;1685811;83;20947;-67
2021/06/07 13:53:42;;;;;;;11.20;4.08;;;;;;;21.77;83.11;99099.09;1632093;86;21105;-68
2021/06/07 13:56:14;;;;;;;4.15;3.27;;;;;;;21.81;83.42;99084.98;1600922;86;21742;-67